Kline, Colorado
Current Conditions -  °F | °C
As of 8:53 PM on Monday 20 Oct 2014 (Local Time) from KDRO Reporting Station
Broken Clouds Broken Clouds  
Wind Chill: 52°   Ceiling: 10000
Heat Index: 52°   Visibility: 10mi
Dew Point: 42°   Wind: 3mph
Humidity: 69%   Direction: 100°E
Pressure: 30.19"   Gusts: NA
Location:  37.1547°N, 108.155°W
Report Text: KDRO 210253Z AUTO 10003KT 10SM BKN100 11/06 A3019 RMK AO2 SLP196 T01110056 52007 PWINO
Loading
Personal Weather Stations






























Interactive Weather Map
Tropical Storm Tracking
New forecast layout! Learn more

10-Day Weather Forecast

Advertisements
Track Severe Weather on mobile